KVBG/VBG METAR and TAF weather

Enter ICAO airport designator
Station Type Date Time Source
KVBG METAR 2019/08/24 22:58 UTC NOAA

KVBG 242258Z AUTO 29009KT 10SM OVC009 19/15 A2995 RMK AO2 OVC V BKN SLP144 T01940153


Station Type Date Time Source
KVBG Decoded METAR 2019/08/24 22:58 UTC NOAA

Station name not available
Aug 24, 2019 - 06:58 PM EDT / 2019.08.24 2258 UTC
Wind: from the WNW (290 degrees) at 10 MPH (9 KT):0
Visibility: 10 mile(s):0
Sky conditions: overcast
Temperature: 66.9 F (19.4 C)
Dew Point: 59.5 F (15.3 C)
Relative Humidity: 77%
Pressure (altimeter): 29.95 in. Hg (1014 hPa)
ob: KVBG 242258Z AUTO 29009KT 10SM OVC009 19/15 A2995 RMK AO2 OVC V BKN SLP144 T01940153
cycle: 23

Station Type Date Time Source
KVBG TAF 2019/08/23 22:06 UTC NOAA

TAF KVBG 232200Z 2322/2504 32009KT 9999 SCT007 BKN010 QNH2987INS
BECMG 2323/2324 32009KT 8000 BR SCT005 BKN007 QNH2986INS
BECMG 2402/2403 VRB06KT 4800 BR OVC005 QNH2984INS
BECMG 2407/2408 VRB06KT 1600 -DZ BR OVC002 QNH2983INS
BECMG 2416/2417 VRB06KT 4800 BR OVC004 QNH2985INS
BECMG 2418/2419 33006KT 9999 NSW SCT004 BKN006 BKN250 QNH2987INS
BECMG 2420/2421 32009KT 9999 FEW005 SCT007 SCT250 QNH2985INS
BECMG 2502/2503 VRB06KT 8000 BR OVC006 QNH2982INS TX19/2420Z TN13/2412Z LAST NO
AMDS AFT 2400 NEXT 2614

Example: see airport list